sensor_id;sensor_type;location;lat;lon;timestamp;P1;durP1;ratioP1;P2;durP2;ratioP2
4078;SDS011;2054;47.858;11.156;2022-07-29T02:31:39;1.70;;;1.45;;
4078;SDS011;2054;47.858;11.156;2022-07-29T02:34:08;2.17;;;1.20;;
4078;SDS011;2054;47.858;11.156;2022-07-29T02:36:36;2.25;;;1.30;;
4078;SDS011;2054;47.858;11.156;2022-07-29T02:39:03;1.40;;;1.30;;
4078;SDS011;2054;47.858;11.156;2022-07-29T02:41:33;1.98;;;1.30;;
4078;SDS011;2054;47.858;11.156;2022-07-29T02:44:03;2.70;;;1.30;;
4078;SDS011;2054;47.858;11.156;2022-07-29T02:46:32;1.83;;;1.17;;
4078;SDS011;2054;47.858;11.156;2022-07-29T02:49:04;3.08;;;1.30;;
4078;SDS011;2054;47.858;11.156;2022-07-29T02:51:34;2.95;;;1.40;;
4078;SDS011;2054;47.858;11.156;2022-07-29T02:54:06;1.77;;;1.20;;
4078;SDS011;2054;47.858;11.156;2022-07-29T02:56:34;3.35;;;1.30;;
4078;SDS011;2054;47.858;11.156;2022-07-29T02:59:03;1.20;;;1.10;;
4078;SDS011;2054;47.858;11.156;2022-07-29T03:01:31;1.40;;;1.30;;
4078;SDS011;2054;47.858;11.156;2022-07-29T03:04:00;1.45;;;1.30;;
4078;SDS011;2054;47.858;11.156;2022-07-29T03:06:29;3.35;;;1.13;;
4078;SDS011;2054;47.858;11.156;2022-07-29T03:08:57;2.03;;;1.20;;
4078;SDS011;2054;47.858;11.156;2022-07-29T03:11:25;1.40;;;1.30;;
4078;SDS011;2054;47.858;11.156;2022-07-29T03:13:53;3.75;;;1.40;;
4078;SDS011;2054;47.858;11.156;2022-07-29T03:16:21;1.48;;;1.20;;
4078;SDS011;2054;47.858;11.156;2022-07-29T03:18:48;2.72;;;1.27;;
4078;SDS011;2054;47.858;11.156;2022-07-29T03:21:16;2.78;;;1.17;;
4078;SDS011;2054;47.858;11.156;2022-07-29T03:23:45;2.08;;;1.30;;
4078;SDS011;2054;47.858;11.156;2022-07-29T03:26:12;1.60;;;1.38;;
4078;SDS011;2054;47.858;11.156;2022-07-29T03:28:40;2.13;;;1.20;;
4078;SDS011;2054;47.858;11.156;2022-07-29T03:31:07;1.52;;;1.30;;
4078;SDS011;2054;47.858;11.156;2022-07-29T03:33:34;2.45;;;1.20;;
4078;SDS011;2054;47.858;11.156;2022-07-29T03:36:02;1.30;;;1.20;;
4078;SDS011;2054;47.858;11.156;2022-07-29T03:38:29;1.48;;;1.38;;
4078;SDS011;2054;47.858;11.156;2022-07-29T03:40:59;1.52;;;1.42;;
4078;SDS011;2054;47.858;11.156;2022-07-29T03:43:28;1.30;;;1.20;;
4078;SDS011;2054;47.858;11.156;2022-07-29T03:45:57;2.42;;;1.40;;
4078;SDS011;2054;47.858;11.156;2022-07-29T03:48:26;2.65;;;1.35;;
4078;SDS011;2054;47.858;11.156;2022-07-29T03:50:54;1.75;;;1.35;;
4078;SDS011;2054;47.858;11.156;2022-07-29T03:53:22;1.75;;;1.13;;
4078;SDS011;2054;47.858;11.156;2022-07-29T03:55:50;4.22;;;1.38;;
4078;SDS011;2054;47.858;11.156;2022-07-29T03:58:20;2.47;;;1.60;;
4078;SDS011;2054;47.858;11.156;2022-07-29T04:00:48;1.50;;;1.27;;
4078;SDS011;2054;47.858;11.156;2022-07-29T04:03:15;1.30;;;1.20;;
4078;SDS011;2054;47.858;11.156;2022-07-29T04:05:42;1.63;;;1.40;;
4078;SDS011;2054;47.858;11.156;2022-07-29T04:08:09;1.30;;;1.20;;
4078;SDS011;2054;47.858;11.156;2022-07-29T04:10:37;1.80;;;1.60;;
4078;SDS011;2054;47.858;11.156;2022-07-29T04:13:04;1.83;;;1.50;;
4078;SDS011;2054;47.858;11.156;2022-07-29T04:15:33;1.92;;;1.33;;
4078;SDS011;2054;47.858;11.156;2022-07-29T04:18:00;4.20;;;1.67;;
4078;SDS011;2054;47.858;11.156;2022-07-29T04:20:27;2.08;;;1.65;;
4078;SDS011;2054;47.858;11.156;2022-07-29T04:22:55;1.40;;;1.30;;
4078;SDS011;2054;47.858;11.156;2022-07-29T04:25:22;1.40;;;1.30;;
4078;SDS011;2054;47.858;11.156;2022-07-29T04:27:49;3.05;;;1.38;;
4078;SDS011;2054;47.858;11.156;2022-07-29T04:30:26;2.00;;;1.20;;
4078;SDS011;2054;47.858;11.156;2022-07-29T04:32:54;2.63;;;1.45;;
4078;SDS011;2054;47.858;11.156;2022-07-29T04:35:22;1.75;;;1.50;;
4078;SDS011;2054;47.858;11.156;2022-07-29T04:37:49;2.33;;;1.45;;
4078;SDS011;2054;47.858;11.156;2022-07-29T04:40:16;1.80;;;1.38;;
4078;SDS011;2054;47.858;11.156;2022-07-29T04:42:44;2.17;;;1.80;;
4078;SDS011;2054;47.858;11.156;2022-07-29T04:45:11;4.55;;;1.63;;
4078;SDS011;2054;47.858;11.156;2022-07-29T04:47:38;3.22;;;1.65;;
4078;SDS011;2054;47.858;11.156;2022-07-29T04:50:08;4.00;;;2.20;;
4078;SDS011;2054;47.858;11.156;2022-07-29T04:52:35;4.97;;;1.98;;
4078;SDS011;2054;47.858;11.156;2022-07-29T04:55:03;3.13;;;2.15;;
4078;SDS011;2054;47.858;11.156;2022-07-29T04:57:30;2.25;;;2.03;;
4078;SDS011;2054;47.858;11.156;2022-07-29T04:59:57;3.30;;;2.35;;
4078;SDS011;2054;47.858;11.156;2022-07-29T05:02:24;2.97;;;1.85;;
4078;SDS011;2054;47.858;11.156;2022-07-29T05:04:52;2.33;;;1.52;;
4078;SDS011;2054;47.858;11.156;2022-07-29T05:07:20;2.38;;;2.13;;
4078;SDS011;2054;47.858;11.156;2022-07-29T05:09:47;3.03;;;1.70;;
4078;SDS011;2054;47.858;11.156;2022-07-29T05:12:15;3.20;;;2.03;;
4078;SDS011;2054;47.858;11.156;2022-07-29T05:14:42;3.22;;;2.25;;
4078;SDS011;2054;47.858;11.156;2022-07-29T05:17:09;4.60;;;2.10;;
4078;SDS011;2054;47.858;11.156;2022-07-29T05:19:36;3.65;;;2.13;;
4078;SDS011;2054;47.858;11.156;2022-07-29T05:22:03;3.67;;;2.63;;
4078;SDS011;2054;47.858;11.156;2022-07-29T05:24:32;2.28;;;1.73;;
4078;SDS011;2054;47.858;11.156;2022-07-29T05:26:59;3.45;;;1.75;;
4078;SDS011;2054;47.858;11.156;2022-07-29T05:29:26;2.30;;;1.65;;
4078;SDS011;2054;47.858;11.156;2022-07-29T05:31:54;1.90;;;1.70;;
4078;SDS011;2054;47.858;11.156;2022-07-29T05:34:21;2.67;;;1.70;;
4078;SDS011;2054;47.858;11.156;2022-07-29T05:36:50;2.70;;;1.60;;
4078;SDS011;2054;47.858;11.156;2022-07-29T05:39:17;1.50;;;1.40;;
4078;SDS011;2054;47.858;11.156;2022-07-29T05:41:45;1.92;;;1.77;;
4078;SDS011;2054;47.858;11.156;2022-07-29T05:44:13;4.30;;;1.70;;
4078;SDS011;2054;47.858;11.156;2022-07-29T05:46:40;2.25;;;1.55;;
4078;SDS011;2054;47.858;11.156;2022-07-29T05:49:07;2.42;;;1.40;;
4078;SDS011;2054;47.858;11.156;2022-07-29T05:51:35;1.42;;;1.33;;
4078;SDS011;2054;47.858;11.156;2022-07-29T05:54:02;1.65;;;1.55;;
4078;SDS011;2054;47.858;11.156;2022-07-29T05:56:29;2.33;;;1.50;;
4078;SDS011;2054;47.858;11.156;2022-07-29T05:58:58;2.72;;;1.52;;
4078;SDS011;2054;47.858;11.156;2022-07-29T06:01:25;1.38;;;1.27;;
4078;SDS011;2054;47.858;11.156;2022-07-29T06:03:52;1.90;;;1.60;;
4078;SDS011;2054;47.858;11.156;2022-07-29T06:06:19;1.50;;;1.40;;
4078;SDS011;2054;47.858;11.156;2022-07-29T06:08:47;2.60;;;1.20;;
4078;SDS011;2054;47.858;11.156;2022-07-29T06:11:14;1.60;;;1.50;;
4078;SDS011;2054;47.858;11.156;2022-07-29T06:13:41;1.65;;;1.35;;
4078;SDS011;2054;47.858;11.156;2022-07-29T06:16:10;1.70;;;1.60;;
4078;SDS011;2054;47.858;11.156;2022-07-29T06:18:38;1.45;;;1.35;;
4078;SDS011;2054;47.858;11.156;2022-07-29T06:21:07;1.40;;;1.30;;
4078;SDS011;2054;47.858;11.156;2022-07-29T06:23:34;1.50;;;1.38;;
4078;SDS011;2054;47.858;11.156;2022-07-29T06:26:02;1.40;;;1.30;;
4078;SDS011;2054;47.858;11.156;2022-07-29T06:28:29;1.65;;;1.30;;
4078;SDS011;2054;47.858;11.156;2022-07-29T06:30:57;1.85;;;1.35;;
4078;SDS011;2054;47.858;11.156;2022-07-29T06:33:25;1.73;;;1.55;;
4078;SDS011;2054;47.858;11.156;2022-07-29T06:35:52;1.70;;;1.30;;
4078;SDS011;2054;47.858;11.156;2022-07-29T06:38:20;1.55;;;1.45;;
4078;SDS011;2054;47.858;11.156;2022-07-29T06:40:47;2.05;;;1.85;;
4078;SDS011;2054;47.858;11.156;2022-07-29T06:43:27;1.40;;;1.30;;
4078;SDS011;2054;47.858;11.156;2022-07-29T06:45:56;1.35;;;1.25;;
4078;SDS011;2054;47.858;11.156;2022-07-29T06:48:23;3.00;;;1.45;;
4078;SDS011;2054;47.858;11.156;2022-07-29T06:50:52;2.55;;;1.40;;
4078;SDS011;2054;47.858;11.156;2022-07-29T06:53:20;1.73;;;1.38;;
4078;SDS011;2054;47.858;11.156;2022-07-29T06:55:47;1.40;;;1.30;;
4078;SDS011;2054;47.858;11.156;2022-07-29T06:58:14;1.50;;;1.20;;
4078;SDS011;2054;47.858;11.156;2022-07-29T07:00:43;1.65;;;1.52;;
4078;SDS011;2054;47.858;11.156;2022-07-29T07:03:10;2.38;;;1.42;;
4078;SDS011;2054;47.858;11.156;2022-07-29T07:05:37;2.05;;;1.40;;
4078;SDS011;2054;47.858;11.156;2022-07-29T07:08:06;1.60;;;1.23;;
4078;SDS011;2054;47.858;11.156;2022-07-29T07:10:33;1.50;;;1.40;;
4078;SDS011;2054;47.858;11.156;2022-07-29T07:13:01;2.38;;;1.45;;
4078;SDS011;2054;47.858;11.156;2022-07-29T07:15:28;1.02;;;1.02;;
4078;SDS011;2054;47.858;11.156;2022-07-29T07:17:55;2.05;;;1.30;;
4078;SDS011;2054;47.858;11.156;2022-07-29T07:20:23;1.48;;;1.38;;
4078;SDS011;2054;47.858;11.156;2022-07-29T07:22:50;1.10;;;1.10;;
4078;SDS011;2054;47.858;11.156;2022-07-29T07:25:19;2.13;;;1.25;;
4078;SDS011;2054;47.858;11.156;2022-07-29T07:27:46;1.38;;;1.27;;
4078;SDS011;2054;47.858;11.156;2022-07-29T07:30:13;2.03;;;1.65;;
4078;SDS011;2054;47.858;11.156;2022-07-29T07:32:41;1.40;;;1.30;;
4078;SDS011;2054;47.858;11.156;2022-07-29T07:35:08;2.50;;;1.38;;
4078;SDS011;2054;47.858;11.156;2022-07-29T07:37:36;1.73;;;1.63;;
4078;SDS011;2054;47.858;11.156;2022-07-29T07:40:03;1.92;;;1.58;;
4078;SDS011;2054;47.858;11.156;2022-07-29T07:42:32;1.95;;;1.60;;
4078;SDS011;2054;47.858;11.156;2022-07-29T07:44:59;2.58;;;1.30;;
4078;SDS011;2054;47.858;11.156;2022-07-29T07:47:27;2.20;;;1.42;;
4078;SDS011;2054;47.858;11.156;2022-07-29T07:49:54;2.72;;;1.20;;
4078;SDS011;2054;47.858;11.156;2022-07-29T07:52:21;3.55;;;1.67;;
4078;SDS011;2054;47.858;11.156;2022-07-29T07:54:49;2.60;;;1.60;;
4078;SDS011;2054;47.858;11.156;2022-07-29T07:57:16;1.65;;;1.50;;
4078;SDS011;2054;47.858;11.156;2022-07-29T07:59:45;2.45;;;1.60;;
4078;SDS011;2054;47.858;11.156;2022-07-29T08:02:12;2.22;;;1.48;;
4078;SDS011;2054;47.858;11.156;2022-07-29T08:04:39;2.72;;;1.80;;
4078;SDS011;2054;47.858;11.156;2022-07-29T08:07:07;2.75;;;1.63;;
4078;SDS011;2054;47.858;11.156;2022-07-29T08:09:35;1.70;;;1.60;;
4078;SDS011;2054;47.858;11.156;2022-07-29T08:12:02;2.28;;;1.70;;
4078;SDS011;2054;47.858;11.156;2022-07-29T08:14:30;1.58;;;1.48;;
4078;SDS011;2054;47.858;11.156;2022-07-29T08:17:01;6.65;;;1.60;;
4078;SDS011;2054;47.858;11.156;2022-07-29T08:19:28;2.28;;;1.67;;
4078;SDS011;2054;47.858;11.156;2022-07-29T08:21:56;1.83;;;1.58;;
4078;SDS011;2054;47.858;11.156;2022-07-29T08:24:23;2.17;;;1.70;;
4078;SDS011;2054;47.858;11.156;2022-07-29T08:27:07;1.80;;;1.70;;
4078;SDS011;2054;47.858;11.156;2022-07-29T08:29:35;2.90;;;1.70;;
4078;SDS011;2054;47.858;11.156;2022-07-29T08:32:04;2.08;;;1.88;;
4078;SDS011;2054;47.858;11.156;2022-07-29T08:34:31;2.25;;;1.92;;
4078;SDS011;2054;47.858;11.156;2022-07-29T08:36:58;3.45;;;2.03;;
4078;SDS011;2054;47.858;11.156;2022-07-29T08:39:26;3.17;;;1.70;;
4078;SDS011;2054;47.858;11.156;2022-07-29T08:41:53;2.60;;;1.73;;
4078;SDS011;2054;47.858;11.156;2022-07-29T08:44:21;1.88;;;1.65;;
4078;SDS011;2054;47.858;11.156;2022-07-29T08:46:48;2.40;;;2.10;;
4078;SDS011;2054;47.858;11.156;2022-07-29T08:49:17;1.92;;;1.70;;
4078;SDS011;2054;47.858;11.156;2022-07-29T08:51:45;2.05;;;1.90;;
4078;SDS011;2054;47.858;11.156;2022-07-29T08:54:13;5.07;;;2.00;;
4078;SDS011;2054;47.858;11.156;2022-07-29T08:56:43;1.98;;;1.77;;
4078;SDS011;2054;47.858;11.156;2022-07-29T08:59:11;2.17;;;1.77;;
4078;SDS011;2054;47.858;11.156;2022-07-29T09:01:40;1.77;;;1.67;;
4078;SDS011;2054;47.858;11.156;2022-07-29T09:04:12;1.65;;;1.55;;
4078;SDS011;2054;47.858;11.156;2022-07-29T09:06:43;2.00;;;1.58;;
4078;SDS011;2054;47.858;11.156;2022-07-29T09:09:13;2.20;;;2.00;;
4078;SDS011;2054;47.858;11.156;2022-07-29T09:11:41;1.80;;;1.60;;
4078;SDS011;2054;47.858;11.156;2022-07-29T09:14:11;3.63;;;1.73;;
4078;SDS011;2054;47.858;11.156;2022-07-29T09:16:45;3.22;;;1.75;;
4078;SDS011;2054;47.858;11.156;2022-07-29T09:19:19;2.33;;;1.65;;
4078;SDS011;2054;47.858;11.156;2022-07-29T09:21:48;2.13;;;1.80;;
4078;SDS011;2054;47.858;11.156;2022-07-29T09:24:36;1.90;;;1.75;;
4078;SDS011;2054;47.858;11.156;2022-07-29T09:27:18;2.38;;;1.70;;
4078;SDS011;2054;47.858;11.156;2022-07-29T09:30:07;2.00;;;1.90;;
4078;SDS011;2054;47.858;11.156;2022-07-29T09:32:53;2.08;;;1.90;;
4078;SDS011;2054;47.858;11.156;2022-07-29T09:35:24;1.95;;;1.80;;
4078;SDS011;2054;47.858;11.156;2022-07-29T09:37:53;4.47;;;2.17;;
4078;SDS011;2054;47.858;11.156;2022-07-29T09:40:21;2.05;;;1.95;;
4078;SDS011;2054;47.858;11.156;2022-07-29T09:42:49;2.63;;;1.90;;
4078;SDS011;2054;47.858;11.156;2022-07-29T09:45:28;2.53;;;2.33;;
4078;SDS011;2054;47.858;11.156;2022-07-29T09:47:56;2.22;;;1.70;;
4078;SDS011;2054;47.858;11.156;2022-07-29T09:50:34;2.00;;;1.90;;
4078;SDS011;2054;47.858;11.156;2022-07-29T09:53:03;2.30;;;2.15;;
4078;SDS011;2054;47.858;11.156;2022-07-29T09:55:31;3.47;;;2.25;;
4078;SDS011;2054;47.858;11.156;2022-07-29T10:00:41;2.17;;;1.92;;
4078;SDS011;2054;47.858;11.156;2022-07-29T10:03:09;2.63;;;2.30;;
4078;SDS011;2054;47.858;11.156;2022-07-29T10:05:36;2.25;;;2.05;;
4078;SDS011;2054;47.858;11.156;2022-07-29T10:08:06;2.30;;;2.10;;
4078;SDS011;2054;47.858;11.156;2022-07-29T10:10:34;3.10;;;2.38;;
4078;SDS011;2054;47.858;11.156;2022-07-29T10:13:03;3.70;;;2.10;;
4078;SDS011;2054;47.858;11.156;2022-07-29T10:15:31;3.17;;;2.70;;
4078;SDS011;2054;47.858;11.156;2022-07-29T10:18:02;3.90;;;2.22;;
4078;SDS011;2054;47.858;11.156;2022-07-29T10:20:29;3.08;;;2.38;;
4078;SDS011;2054;47.858;11.156;2022-07-29T10:22:57;2.83;;;2.33;;
4078;SDS011;2054;47.858;11.156;2022-07-29T10:25:26;2.60;;;2.40;;
4078;SDS011;2054;47.858;11.156;2022-07-29T10:27:53;2.92;;;2.22;;
4078;SDS011;2054;47.858;11.156;2022-07-29T10:30:22;2.53;;;2.33;;
4078;SDS011;2054;47.858;11.156;2022-07-29T10:35:37;3.03;;;2.45;;
4078;SDS011;2054;47.858;11.156;2022-07-29T10:38:10;2.42;;;2.10;;
4078;SDS011;2054;47.858;11.156;2022-07-29T10:40:45;2.65;;;2.45;;
4078;SDS011;2054;47.858;11.156;2022-07-29T10:43:35;2.58;;;2.08;;
4078;SDS011;2054;47.858;11.156;2022-07-29T10:46:03;2.58;;;2.38;;
4078;SDS011;2054;47.858;11.156;2022-07-29T10:48:31;3.03;;;2.38;;
4078;SDS011;2054;47.858;11.156;2022-07-29T10:51:00;2.63;;;2.42;;
4078;SDS011;2054;47.858;11.156;2022-07-29T10:53:47;3.10;;;2.30;;
4078;SDS011;2054;47.858;11.156;2022-07-29T10:56:25;2.47;;;2.10;;
4078;SDS011;2054;47.858;11.156;2022-07-29T11:01:49;3.75;;;2.25;;
4078;SDS011;2054;47.858;11.156;2022-07-29T11:04:23;2.80;;;2.20;;
4078;SDS011;2054;47.858;11.156;2022-07-29T11:07:10;3.85;;;2.50;;
4078;SDS011;2054;47.858;11.156;2022-07-29T11:09:38;2.28;;;2.08;;
4078;SDS011;2054;47.858;11.156;2022-07-29T11:12:08;3.75;;;2.63;;
4078;SDS011;2054;47.858;11.156;2022-07-29T11:14:57;5.47;;;2.88;;
4078;SDS011;2054;47.858;11.156;2022-07-29T11:17:26;5.63;;;2.65;;
4078;SDS011;2054;47.858;11.156;2022-07-29T11:20:08;4.57;;;2.75;;
4078;SDS011;2054;47.858;11.156;2022-07-29T11:22:55;2.83;;;2.50;;
4078;SDS011;2054;47.858;11.156;2022-07-29T11:25:22;4.22;;;2.80;;
4078;SDS011;2054;47.858;11.156;2022-07-29T11:27:50;4.28;;;2.45;;
4078;SDS011;2054;47.858;11.156;2022-07-29T11:30:19;2.63;;;2.42;;
4078;SDS011;2054;47.858;11.156;2022-07-29T11:32:47;4.70;;;2.60;;
4078;SDS011;2054;47.858;11.156;2022-07-29T11:35:15;2.70;;;2.28;;
4078;SDS011;2054;47.858;11.156;2022-07-29T11:37:43;2.60;;;2.40;;
4078;SDS011;2054;47.858;11.156;2022-07-29T11:40:14;2.58;;;2.30;;
4078;SDS011;2054;47.858;11.156;2022-07-29T11:42:43;3.55;;;2.45;;
4078;SDS011;2054;47.858;11.156;2022-07-29T11:45:11;2.50;;;2.30;;
4078;SDS011;2054;47.858;11.156;2022-07-29T11:47:41;2.75;;;2.55;;
4078;SDS011;2054;47.858;11.156;2022-07-29T11:50:09;2.83;;;2.53;;
4078;SDS011;2054;47.858;11.156;2022-07-29T11:52:37;3.45;;;2.30;;
4078;SDS011;2054;47.858;11.156;2022-07-29T11:55:08;3.45;;;2.47;;
4078;SDS011;2054;47.858;11.156;2022-07-29T11:57:36;4.10;;;2.22;;
4078;SDS011;2054;47.858;11.156;2022-07-29T12:00:04;3.22;;;2.47;;
4078;SDS011;2054;47.858;11.156;2022-07-29T12:02:41;4.40;;;2.45;;
4078;SDS011;2054;47.858;11.156;2022-07-29T12:05:09;2.97;;;2.10;;
4078;SDS011;2054;47.858;11.156;2022-07-29T12:07:37;2.35;;;2.10;;
4078;SDS011;2054;47.858;11.156;2022-07-29T12:10:05;2.17;;;1.98;;
4078;SDS011;2054;47.858;11.156;2022-07-29T12:12:33;3.10;;;2.13;;
4078;SDS011;2054;47.858;11.156;2022-07-29T12:15:10;2.28;;;2.10;;
4078;SDS011;2054;47.858;11.156;2022-07-29T12:17:37;2.03;;;1.92;;
4078;SDS011;2054;47.858;11.156;2022-07-29T12:20:07;3.38;;;1.90;;
4078;SDS011;2054;47.858;11.156;2022-07-29T12:22:35;2.17;;;1.98;;
4078;SDS011;2054;47.858;11.156;2022-07-29T12:25:05;2.17;;;1.98;;
4078;SDS011;2054;47.858;11.156;2022-07-29T12:27:33;2.00;;;1.90;;
4078;SDS011;2054;47.858;11.156;2022-07-29T12:30:01;2.92;;;2.00;;
4078;SDS011;2054;47.858;11.156;2022-07-29T12:32:32;2.50;;;2.30;;
4078;SDS011;2054;47.858;11.156;2022-07-29T12:34:59;2.00;;;1.90;;
4078;SDS011;2054;47.858;11.156;2022-07-29T12:37:30;2.33;;;1.95;;
4078;SDS011;2054;47.858;11.156;2022-07-29T12:39:57;2.50;;;1.98;;
4078;SDS011;2054;47.858;11.156;2022-07-29T12:42:24;3.05;;;2.10;;
4078;SDS011;2054;47.858;11.156;2022-07-29T12:44:52;2.33;;;2.13;;
4078;SDS011;2054;47.858;11.156;2022-07-29T12:47:19;2.28;;;2.08;;
4078;SDS011;2054;47.858;11.156;2022-07-29T12:49:47;4.00;;;2.00;;
4078;SDS011;2054;47.858;11.156;2022-07-29T12:52:27;4.00;;;2.10;;
4078;SDS011;2054;47.858;11.156;2022-07-29T12:54:56;1.90;;;1.80;;
4078;SDS011;2054;47.858;11.156;2022-07-29T12:57:24;3.45;;;1.90;;
4078;SDS011;2054;47.858;11.156;2022-07-29T13:00:02;2.67;;;2.35;;
4078;SDS011;2054;47.858;11.156;2022-07-29T13:02:29;1.83;;;1.70;;
4078;SDS011;2054;47.858;11.156;2022-07-29T13:04:57;2.53;;;2.33;;
4078;SDS011;2054;47.858;11.156;2022-07-29T13:07:24;4.80;;;2.22;;
4078;SDS011;2054;47.858;11.156;2022-07-29T13:09:52;2.85;;;2.10;;
4078;SDS011;2054;47.858;11.156;2022-07-29T13:12:21;3.88;;;2.30;;
4078;SDS011;2054;47.858;11.156;2022-07-29T13:14:48;4.03;;;2.13;;
4078;SDS011;2054;47.858;11.156;2022-07-29T13:17:16;2.00;;;1.88;;
4078;SDS011;2054;47.858;11.156;2022-07-29T13:19:44;2.45;;;2.22;;
4078;SDS011;2054;47.858;11.156;2022-07-29T13:22:12;2.47;;;1.83;;
4078;SDS011;2054;47.858;11.156;2022-07-29T13:24:49;3.17;;;1.95;;
4078;SDS011;2054;47.858;11.156;2022-07-29T13:27:16;1.90;;;1.80;;
4078;SDS011;2054;47.858;11.156;2022-07-29T13:29:45;2.10;;;1.90;;
4078;SDS011;2054;47.858;11.156;2022-07-29T13:32:12;4.03;;;2.03;;
4078;SDS011;2054;47.858;11.156;2022-07-29T13:34:40;2.47;;;1.85;;
4078;SDS011;2054;47.858;11.156;2022-07-29T13:37:07;2.22;;;2.00;;
4078;SDS011;2054;47.858;11.156;2022-07-29T13:39:34;3.97;;;1.80;;
4078;SDS011;2054;47.858;11.156;2022-07-29T13:42:02;2.65;;;2.00;;
4078;SDS011;2054;47.858;11.156;2022-07-29T13:44:29;3.97;;;1.85;;
4078;SDS011;2054;47.858;11.156;2022-07-29T13:46:58;2.53;;;1.80;;
4078;SDS011;2054;47.858;11.156;2022-07-29T13:49:27;2.45;;;2.00;;
4078;SDS011;2054;47.858;11.156;2022-07-29T13:51:54;2.42;;;2.20;;
4078;SDS011;2054;47.858;11.156;2022-07-29T13:54:21;6.07;;;2.30;;
4078;SDS011;2054;47.858;11.156;2022-07-29T13:56:50;6.45;;;1.85;;
4078;SDS011;2054;47.858;11.156;2022-07-29T13:59:20;3.17;;;2.28;;
4078;SDS011;2054;47.858;11.156;2022-07-29T14:01:47;2.50;;;2.10;;
4078;SDS011;2054;47.858;11.156;2022-07-29T14:04:15;4.63;;;2.15;;
4078;SDS011;2054;47.858;11.156;2022-07-29T14:06:43;2.95;;;2.05;;
4078;SDS011;2054;47.858;11.156;2022-07-29T14:09:10;8.15;;;2.40;;
4078;SDS011;2054;47.858;11.156;2022-07-29T14:11:38;3.97;;;1.95;;
4078;SDS011;2054;47.858;11.156;2022-07-29T14:14:05;3.13;;;2.15;;
4078;SDS011;2054;47.858;11.156;2022-07-29T14:16:32;2.83;;;2.20;;
4078;SDS011;2054;47.858;11.156;2022-07-29T14:18:59;4.13;;;2.47;;
4078;SDS011;2054;47.858;11.156;2022-07-29T14:21:28;5.78;;;2.20;;
4078;SDS011;2054;47.858;11.156;2022-07-29T14:23:55;4.38;;;2.08;;
4078;SDS011;2054;47.858;11.156;2022-07-29T14:26:23;3.75;;;2.30;;
4078;SDS011;2054;47.858;11.156;2022-07-29T14:28:50;2.85;;;2.60;;
4078;SDS011;2054;47.858;11.156;2022-07-29T14:31:17;3.53;;;2.10;;
4078;SDS011;2054;47.858;11.156;2022-07-29T14:33:44;3.10;;;2.40;;
4078;SDS011;2054;47.858;11.156;2022-07-29T14:36:11;4.03;;;2.22;;
4078;SDS011;2054;47.858;11.156;2022-07-29T14:38:40;2.50;;;2.30;;
4078;SDS011;2054;47.858;11.156;2022-07-29T14:41:07;2.60;;;2.40;;
4078;SDS011;2054;47.858;11.156;2022-07-29T14:43:35;2.50;;;2.30;;
4078;SDS011;2054;47.858;11.156;2022-07-29T14:46:02;3.00;;;2.70;;
4078;SDS011;2054;47.858;11.156;2022-07-29T14:48:29;2.50;;;2.30;;
4078;SDS011;2054;47.858;11.156;2022-07-29T14:50:57;3.78;;;2.25;;
4078;SDS011;2054;47.858;11.156;2022-07-29T14:53:24;2.75;;;2.50;;
4078;SDS011;2054;47.858;11.156;2022-07-29T14:55:52;3.00;;;2.40;;
4078;SDS011;2054;47.858;11.156;2022-07-29T14:58:20;3.47;;;2.58;;
4078;SDS011;2054;47.858;11.156;2022-07-29T15:00:47;2.60;;;2.40;;
4078;SDS011;2054;47.858;11.156;2022-07-29T15:03:15;2.60;;;2.40;;
4078;SDS011;2054;47.858;11.156;2022-07-29T15:05:42;2.63;;;2.42;;
4078;SDS011;2054;47.858;11.156;2022-07-29T15:08:09;3.80;;;2.40;;
4078;SDS011;2054;47.858;11.156;2022-07-29T15:10:36;5.18;;;2.40;;
4078;SDS011;2054;47.858;11.156;2022-07-29T15:13:05;2.38;;;2.13;;
4078;SDS011;2054;47.858;11.156;2022-07-29T15:15:32;2.97;;;2.30;;
4078;SDS011;2054;47.858;11.156;2022-07-29T15:17:59;3.58;;;2.50;;
4078;SDS011;2054;47.858;11.156;2022-07-29T15:20:26;5.55;;;2.50;;
4078;SDS011;2054;47.858;11.156;2022-07-29T15:22:54;2.67;;;2.30;;
4078;SDS011;2054;47.858;11.156;2022-07-29T15:25:21;2.60;;;2.40;;
4078;SDS011;2054;47.858;11.156;2022-07-29T15:27:48;2.75;;;2.00;;
4078;SDS011;2054;47.858;11.156;2022-07-29T15:30:17;2.58;;;2.38;;
4078;SDS011;2054;47.858;11.156;2022-07-29T15:32:44;2.08;;;1.88;;
4078;SDS011;2054;47.858;11.156;2022-07-29T15:35:11;2.78;;;2.42;;
4078;SDS011;2054;47.858;11.156;2022-07-29T15:37:39;2.50;;;2.20;;
4078;SDS011;2054;47.858;11.156;2022-07-29T15:40:07;4.18;;;2.72;;
4078;SDS011;2054;47.858;11.156;2022-07-29T15:42:34;2.80;;;2.35;;
4078;SDS011;2054;47.858;11.156;2022-07-29T15:45:02;2.53;;;2.10;;
4078;SDS011;2054;47.858;11.156;2022-07-29T15:47:31;4.28;;;2.47;;
4078;SDS011;2054;47.858;11.156;2022-07-29T15:49:58;4.55;;;2.35;;
4078;SDS011;2054;47.858;11.156;2022-07-29T15:52:25;2.97;;;2.15;;
4078;SDS011;2054;47.858;11.156;2022-07-29T15:54:53;2.92;;;1.73;;
4078;SDS011;2054;47.858;11.156;2022-07-29T15:57:21;2.95;;;2.20;;
4078;SDS011;2054;47.858;11.156;2022-07-29T15:59:49;2.58;;;2.35;;
4078;SDS011;2054;47.858;11.156;2022-07-29T16:02:16;5.45;;;2.22;;
4078;SDS011;2054;47.858;11.156;2022-07-29T16:04:44;3.88;;;2.10;;
4078;SDS011;2054;47.858;11.156;2022-07-29T16:07:12;3.85;;;2.30;;
4078;SDS011;2054;47.858;11.156;2022-07-29T16:09:39;2.55;;;1.98;;
4078;SDS011;2054;47.858;11.156;2022-07-29T16:12:06;2.45;;;2.20;;
4078;SDS011;2054;47.858;11.156;2022-07-29T16:14:34;3.53;;;2.30;;
4078;SDS011;2054;47.858;11.156;2022-07-29T16:17:01;3.58;;;2.60;;
4078;SDS011;2054;47.858;11.156;2022-07-29T16:19:28;3.40;;;2.50;;
4078;SDS011;2054;47.858;11.156;2022-07-29T16:21:57;2.35;;;2.15;;
4078;SDS011;2054;47.858;11.156;2022-07-29T16:24:24;2.40;;;2.20;;
4078;SDS011;2054;47.858;11.156;2022-07-29T16:26:53;2.28;;;2.10;;
4078;SDS011;2054;47.858;11.156;2022-07-29T16:29:21;2.10;;;1.90;;
4078;SDS011;2054;47.858;11.156;2022-07-29T16:31:48;3.53;;;2.15;;
4078;SDS011;2054;47.858;11.156;2022-07-29T16:34:16;2.53;;;2.17;;
4078;SDS011;2054;47.858;11.156;2022-07-29T16:36:44;3.83;;;2.45;;
4078;SDS011;2054;47.858;11.156;2022-07-29T16:39:12;3.22;;;2.63;;
4078;SDS011;2054;47.858;11.156;2022-07-29T16:41:39;2.78;;;2.58;;
4078;SDS011;2054;47.858;11.156;2022-07-29T16:44:07;3.10;;;2.80;;
4078;SDS011;2054;47.858;11.156;2022-07-29T16:46:34;4.68;;;3.22;;
4078;SDS011;2054;47.858;11.156;2022-07-29T16:49:01;3.13;;;2.85;;
4078;SDS011;2054;47.858;11.156;2022-07-29T16:51:29;3.78;;;3.22;;
4078;SDS011;2054;47.858;11.156;2022-07-29T16:53:56;5.97;;;3.22;;
4078;SDS011;2054;47.858;11.156;2022-07-29T16:56:25;3.30;;;2.72;;
4078;SDS011;2054;47.858;11.156;2022-07-29T16:58:52;4.43;;;3.20;;
4078;SDS011;2054;47.858;11.156;2022-07-29T17:01:19;4.93;;;3.20;;
4078;SDS011;2054;47.858;11.156;2022-07-29T17:03:47;3.92;;;3.40;;
4078;SDS011;2054;47.858;11.156;2022-07-29T17:06:33;5.68;;;3.30;;
4078;SDS011;2054;47.858;11.156;2022-07-29T17:09:00;4.13;;;3.40;;
4078;SDS011;2054;47.858;11.156;2022-07-29T17:11:29;6.40;;;3.90;;
4078;SDS011;2054;47.858;11.156;2022-07-29T17:13:57;4.50;;;3.10;;
4078;SDS011;2054;47.858;11.156;2022-07-29T17:16:24;4.57;;;3.80;;
4078;SDS011;2054;47.858;11.156;2022-07-29T17:18:51;5.20;;;2.83;;
4078;SDS011;2054;47.858;11.156;2022-07-29T17:21:18;3.33;;;2.20;;
4078;SDS011;2054;47.858;11.156;2022-07-29T17:23:46;4.85;;;2.13;;
4078;SDS011;2054;47.858;11.156;2022-07-29T17:26:13;2.90;;;1.95;;
4078;SDS011;2054;47.858;11.156;2022-07-29T17:28:42;1.83;;;1.70;;
4078;SDS011;2054;47.858;11.156;2022-07-29T17:31:09;1.70;;;1.60;;
4078;SDS011;2054;47.858;11.156;2022-07-29T17:33:36;1.52;;;1.42;;
4078;SDS011;2054;47.858;11.156;2022-07-29T17:36:04;3.90;;;1.83;;
4078;SDS011;2054;47.858;11.156;2022-07-29T17:38:51;2.03;;;1.80;;
4078;SDS011;2054;47.858;11.156;2022-07-29T17:41:18;2.65;;;2.00;;
4078;SDS011;2054;47.858;11.156;2022-07-29T17:43:46;4.28;;;2.60;;
4078;SDS011;2054;47.858;11.156;2022-07-29T17:46:14;2.10;;;1.90;;
4078;SDS011;2054;47.858;11.156;2022-07-29T17:48:41;2.97;;;2.17;;